sensor_id;sensor_type;location;lat;lon;timestamp;P1;durP1;ratioP1;P2;durP2;ratioP2
82022;SDS011;71575;49.908;18.356;2023-12-20T00:01:48;11.50;;;4.80;;
82022;SDS011;71575;49.908;18.356;2023-12-20T00:04:48;11.43;;;5.03;;
82022;SDS011;71575;49.908;18.356;2023-12-20T00:07:49;12.32;;;5.55;;
82022;SDS011;71575;49.908;18.356;2023-12-20T00:10:50;10.50;;;5.15;;
82022;SDS011;71575;49.908;18.356;2023-12-20T00:13:51;9.45;;;4.53;;
82022;SDS011;71575;49.908;18.356;2023-12-20T00:16:53;10.68;;;4.72;;
82022;SDS011;71575;49.908;18.356;2023-12-20T00:19:54;11.20;;;5.20;;
82022;SDS011;71575;49.908;18.356;2023-12-20T00:22:58;12.60;;;5.88;;
82022;SDS011;71575;49.908;18.356;2023-12-20T00:25:59;13.05;;;6.43;;
82022;SDS011;71575;49.908;18.356;2023-12-20T00:29:00;13.68;;;6.53;;
82022;SDS011;71575;49.908;18.356;2023-12-20T00:32:00;12.40;;;5.38;;
82022;SDS011;71575;49.908;18.356;2023-12-20T00:35:04;11.25;;;5.75;;
82022;SDS011;71575;49.908;18.356;2023-12-20T00:38:05;12.98;;;6.80;;
82022;SDS011;71575;49.908;18.356;2023-12-20T00:41:05;12.30;;;5.28;;
82022;SDS011;71575;49.908;18.356;2023-12-20T00:44:06;13.10;;;5.82;;
82022;SDS011;71575;49.908;18.356;2023-12-20T00:47:07;12.77;;;5.72;;
82022;SDS011;71575;49.908;18.356;2023-12-20T00:50:08;12.68;;;6.32;;
82022;SDS011;71575;49.908;18.356;2023-12-20T00:53:09;11.07;;;5.63;;
82022;SDS011;71575;49.908;18.356;2023-12-20T00:56:10;12.00;;;6.05;;
82022;SDS011;71575;49.908;18.356;2023-12-20T00:59:10;13.55;;;6.32;;
82022;SDS011;71575;49.908;18.356;2023-12-20T01:02:11;10.82;;;6.25;;
82022;SDS011;71575;49.908;18.356;2023-12-20T01:05:11;12.10;;;6.32;;
82022;SDS011;71575;49.908;18.356;2023-12-20T01:08:12;14.02;;;6.90;;
82022;SDS011;71575;49.908;18.356;2023-12-20T01:11:13;12.68;;;6.20;;
82022;SDS011;71575;49.908;18.356;2023-12-20T01:14:14;16.23;;;6.68;;
82022;SDS011;71575;49.908;18.356;2023-12-20T01:17:15;13.27;;;6.25;;
82022;SDS011;71575;49.908;18.356;2023-12-20T01:20:16;12.70;;;7.00;;
82022;SDS011;71575;49.908;18.356;2023-12-20T01:23:16;12.80;;;5.82;;
82022;SDS011;71575;49.908;18.356;2023-12-20T01:26:17;12.98;;;6.60;;
82022;SDS011;71575;49.908;18.356;2023-12-20T01:29:17;12.18;;;5.88;;
82022;SDS011;71575;49.908;18.356;2023-12-20T01:32:19;11.38;;;5.18;;
82022;SDS011;71575;49.908;18.356;2023-12-20T01:35:20;10.80;;;5.63;;
82022;SDS011;71575;49.908;18.356;2023-12-20T01:38:20;13.75;;;6.00;;
82022;SDS011;71575;49.908;18.356;2023-12-20T01:41:21;12.50;;;6.63;;
82022;SDS011;71575;49.908;18.356;2023-12-20T01:44:22;12.20;;;5.65;;
82022;SDS011;71575;49.908;18.356;2023-12-20T01:47:22;12.82;;;6.45;;
82022;SDS011;71575;49.908;18.356;2023-12-20T01:50:23;14.00;;;5.50;;
82022;SDS011;71575;49.908;18.356;2023-12-20T01:53:24;12.52;;;6.25;;
82022;SDS011;71575;49.908;18.356;2023-12-20T01:56:26;11.05;;;5.18;;
82022;SDS011;71575;49.908;18.356;2023-12-20T01:59:27;11.55;;;5.90;;
82022;SDS011;71575;49.908;18.356;2023-12-20T02:02:29;14.48;;;6.38;;
82022;SDS011;71575;49.908;18.356;2023-12-20T02:05:30;13.65;;;6.10;;
82022;SDS011;71575;49.908;18.356;2023-12-20T02:08:31;13.82;;;5.78;;
82022;SDS011;71575;49.908;18.356;2023-12-20T02:11:31;13.30;;;6.60;;
82022;SDS011;71575;49.908;18.356;2023-12-20T02:14:32;13.20;;;5.90;;
82022;SDS011;71575;49.908;18.356;2023-12-20T02:17:33;13.40;;;6.75;;
82022;SDS011;71575;49.908;18.356;2023-12-20T02:20:34;13.73;;;6.50;;
82022;SDS011;71575;49.908;18.356;2023-12-20T02:23:35;14.27;;;7.75;;
82022;SDS011;71575;49.908;18.356;2023-12-20T02:26:35;12.88;;;6.10;;
82022;SDS011;71575;49.908;18.356;2023-12-20T02:29:36;11.18;;;5.97;;
82022;SDS011;71575;49.908;18.356;2023-12-20T02:32:37;13.85;;;6.90;;
82022;SDS011;71575;49.908;18.356;2023-12-20T02:35:38;11.77;;;6.60;;
82022;SDS011;71575;49.908;18.356;2023-12-20T02:38:38;11.38;;;6.20;;
82022;SDS011;71575;49.908;18.356;2023-12-20T02:41:40;12.52;;;7.25;;
82022;SDS011;71575;49.908;18.356;2023-12-20T02:44:41;12.00;;;6.38;;
82022;SDS011;71575;49.908;18.356;2023-12-20T02:47:42;11.75;;;5.47;;
82022;SDS011;71575;49.908;18.356;2023-12-20T02:50:43;13.25;;;6.05;;
82022;SDS011;71575;49.908;18.356;2023-12-20T02:53:43;12.95;;;5.45;;
82022;SDS011;71575;49.908;18.356;2023-12-20T02:56:44;11.80;;;6.82;;
82022;SDS011;71575;49.908;18.356;2023-12-20T02:59:44;10.50;;;5.47;;
82022;SDS011;71575;49.908;18.356;2023-12-20T03:02:45;12.98;;;6.45;;
82022;SDS011;71575;49.908;18.356;2023-12-20T03:05:46;15.15;;;7.18;;
82022;SDS011;71575;49.908;18.356;2023-12-20T03:08:47;14.15;;;7.30;;
82022;SDS011;71575;49.908;18.356;2023-12-20T03:11:47;12.77;;;6.57;;
82022;SDS011;71575;49.908;18.356;2023-12-20T03:14:48;12.77;;;6.70;;
82022;SDS011;71575;49.908;18.356;2023-12-20T03:17:49;14.10;;;6.07;;
82022;SDS011;71575;49.908;18.356;2023-12-20T03:20:49;12.98;;;6.72;;
82022;SDS011;71575;49.908;18.356;2023-12-20T03:23:50;13.00;;;6.68;;
82022;SDS011;71575;49.908;18.356;2023-12-20T03:26:51;13.82;;;6.60;;
82022;SDS011;71575;49.908;18.356;2023-12-20T03:29:51;16.52;;;7.43;;
82022;SDS011;71575;49.908;18.356;2023-12-20T03:32:52;13.95;;;7.07;;
82022;SDS011;71575;49.908;18.356;2023-12-20T03:35:53;13.52;;;6.70;;
82022;SDS011;71575;49.908;18.356;2023-12-20T03:38:54;13.75;;;6.70;;
82022;SDS011;71575;49.908;18.356;2023-12-20T03:41:54;14.73;;;7.45;;
82022;SDS011;71575;49.908;18.356;2023-12-20T03:44:55;14.40;;;7.53;;
82022;SDS011;71575;49.908;18.356;2023-12-20T03:47:55;14.13;;;6.90;;
82022;SDS011;71575;49.908;18.356;2023-12-20T03:50:56;15.80;;;8.50;;
82022;SDS011;71575;49.908;18.356;2023-12-20T03:53:57;14.38;;;7.70;;
82022;SDS011;71575;49.908;18.356;2023-12-20T03:56:58;13.05;;;5.97;;
82022;SDS011;71575;49.908;18.356;2023-12-20T03:59:59;14.13;;;7.95;;
82022;SDS011;71575;49.908;18.356;2023-12-20T04:02:59;14.48;;;7.55;;
82022;SDS011;71575;49.908;18.356;2023-12-20T04:06:00;13.63;;;6.80;;
82022;SDS011;71575;49.908;18.356;2023-12-20T04:09:01;12.65;;;7.97;;
82022;SDS011;71575;49.908;18.356;2023-12-20T04:12:01;15.43;;;7.75;;
82022;SDS011;71575;49.908;18.356;2023-12-20T04:15:03;15.70;;;8.30;;
82022;SDS011;71575;49.908;18.356;2023-12-20T04:18:03;13.65;;;6.50;;
82022;SDS011;71575;49.908;18.356;2023-12-20T04:21:05;14.73;;;7.30;;
82022;SDS011;71575;49.908;18.356;2023-12-20T04:24:06;14.32;;;7.80;;
82022;SDS011;71575;49.908;18.356;2023-12-20T04:27:07;15.20;;;7.35;;
82022;SDS011;71575;49.908;18.356;2023-12-20T04:30:07;17.92;;;9.02;;
82022;SDS011;71575;49.908;18.356;2023-12-20T04:33:08;14.73;;;6.97;;
82022;SDS011;71575;49.908;18.356;2023-12-20T04:36:09;13.95;;;8.00;;
82022;SDS011;71575;49.908;18.356;2023-12-20T04:39:11;13.73;;;7.63;;
82022;SDS011;71575;49.908;18.356;2023-12-20T04:42:12;16.55;;;8.13;;
82022;SDS011;71575;49.908;18.356;2023-12-20T04:45:12;18.70;;;8.20;;
82022;SDS011;71575;49.908;18.356;2023-12-20T04:48:13;16.88;;;8.32;;
82022;SDS011;71575;49.908;18.356;2023-12-20T04:51:14;14.23;;;7.22;;
82022;SDS011;71575;49.908;18.356;2023-12-20T04:54:15;15.77;;;7.32;;
82022;SDS011;71575;49.908;18.356;2023-12-20T04:57:15;14.07;;;7.25;;
82022;SDS011;71575;49.908;18.356;2023-12-20T05:00:16;15.05;;;7.75;;
82022;SDS011;71575;49.908;18.356;2023-12-20T05:03:17;17.55;;;8.05;;
82022;SDS011;71575;49.908;18.356;2023-12-20T05:06:18;15.10;;;8.30;;
82022;SDS011;71575;49.908;18.356;2023-12-20T05:09:18;15.57;;;7.80;;
82022;SDS011;71575;49.908;18.356;2023-12-20T05:12:19;16.67;;;8.73;;
82022;SDS011;71575;49.908;18.356;2023-12-20T05:15:20;18.25;;;7.55;;
82022;SDS011;71575;49.908;18.356;2023-12-20T05:18:21;15.40;;;8.13;;
82022;SDS011;71575;49.908;18.356;2023-12-20T05:21:22;15.93;;;7.57;;
82022;SDS011;71575;49.908;18.356;2023-12-20T05:24:22;14.20;;;8.15;;
82022;SDS011;71575;49.908;18.356;2023-12-20T05:27:23;17.10;;;8.48;;
82022;SDS011;71575;49.908;18.356;2023-12-20T05:30:24;14.48;;;8.23;;
82022;SDS011;71575;49.908;18.356;2023-12-20T05:33:25;15.75;;;8.77;;
82022;SDS011;71575;49.908;18.356;2023-12-20T05:36:25;17.15;;;10.02;;
82022;SDS011;71575;49.908;18.356;2023-12-20T05:39:26;16.63;;;9.35;;
82022;SDS011;71575;49.908;18.356;2023-12-20T05:42:27;18.08;;;8.30;;
82022;SDS011;71575;49.908;18.356;2023-12-20T05:45:28;17.02;;;7.53;;
82022;SDS011;71575;49.908;18.356;2023-12-20T05:48:28;14.48;;;7.75;;
82022;SDS011;71575;49.908;18.356;2023-12-20T05:51:29;17.13;;;9.10;;
82022;SDS011;71575;49.908;18.356;2023-12-20T05:54:30;14.30;;;7.85;;
82022;SDS011;71575;49.908;18.356;2023-12-20T05:57:31;17.17;;;8.35;;
82022;SDS011;71575;49.908;18.356;2023-12-20T06:00:32;18.30;;;9.60;;
82022;SDS011;71575;49.908;18.356;2023-12-20T06:03:32;19.27;;;9.82;;
82022;SDS011;71575;49.908;18.356;2023-12-20T06:06:33;16.42;;;9.23;;
82022;SDS011;71575;49.908;18.356;2023-12-20T06:09:34;17.58;;;9.63;;
82022;SDS011;71575;49.908;18.356;2023-12-20T06:12:35;17.20;;;9.43;;
82022;SDS011;71575;49.908;18.356;2023-12-20T06:15:35;23.67;;;10.05;;
82022;SDS011;71575;49.908;18.356;2023-12-20T06:18:36;17.45;;;9.57;;
82022;SDS011;71575;49.908;18.356;2023-12-20T06:21:37;20.45;;;10.98;;
82022;SDS011;71575;49.908;18.356;2023-12-20T06:24:37;20.52;;;10.25;;
82022;SDS011;71575;49.908;18.356;2023-12-20T06:27:38;18.70;;;9.68;;
82022;SDS011;71575;49.908;18.356;2023-12-20T06:30:39;19.77;;;11.85;;
82022;SDS011;71575;49.908;18.356;2023-12-20T06:33:40;21.35;;;11.80;;
82022;SDS011;71575;49.908;18.356;2023-12-20T06:36:41;21.90;;;10.73;;
82022;SDS011;71575;49.908;18.356;2023-12-20T06:39:42;20.80;;;11.65;;
82022;SDS011;71575;49.908;18.356;2023-12-20T06:42:42;20.52;;;11.00;;
82022;SDS011;71575;49.908;18.356;2023-12-20T06:45:44;19.40;;;11.32;;
82022;SDS011;71575;49.908;18.356;2023-12-20T06:48:44;21.42;;;11.65;;
82022;SDS011;71575;49.908;18.356;2023-12-20T06:51:45;18.63;;;11.00;;
82022;SDS011;71575;49.908;18.356;2023-12-20T06:54:46;17.58;;;8.95;;
82022;SDS011;71575;49.908;18.356;2023-12-20T06:57:46;16.90;;;9.73;;
82022;SDS011;71575;49.908;18.356;2023-12-20T07:00:47;18.83;;;9.60;;
82022;SDS011;71575;49.908;18.356;2023-12-20T07:03:49;18.23;;;10.18;;
82022;SDS011;71575;49.908;18.356;2023-12-20T07:06:50;18.23;;;10.82;;
82022;SDS011;71575;49.908;18.356;2023-12-20T07:09:51;18.17;;;10.25;;
82022;SDS011;71575;49.908;18.356;2023-12-20T07:12:52;20.08;;;10.88;;
82022;SDS011;71575;49.908;18.356;2023-12-20T07:15:53;18.05;;;10.18;;
82022;SDS011;71575;49.908;18.356;2023-12-20T07:18:53;19.17;;;11.18;;
82022;SDS011;71575;49.908;18.356;2023-12-20T07:21:55;22.00;;;10.95;;
82022;SDS011;71575;49.908;18.356;2023-12-20T07:24:55;20.60;;;11.75;;
82022;SDS011;71575;49.908;18.356;2023-12-20T07:27:56;20.25;;;11.48;;
82022;SDS011;71575;49.908;18.356;2023-12-20T07:30:57;21.63;;;11.52;;
82022;SDS011;71575;49.908;18.356;2023-12-20T07:33:57;20.38;;;11.30;;
82022;SDS011;71575;49.908;18.356;2023-12-20T07:36:58;25.55;;;11.93;;
82022;SDS011;71575;49.908;18.356;2023-12-20T07:39:59;23.20;;;12.23;;
82022;SDS011;71575;49.908;18.356;2023-12-20T07:42:59;21.48;;;11.75;;
82022;SDS011;71575;49.908;18.356;2023-12-20T07:46:04;20.85;;;11.85;;
82022;SDS011;71575;49.908;18.356;2023-12-20T07:49:05;20.90;;;11.73;;
82022;SDS011;71575;49.908;18.356;2023-12-20T07:52:06;22.27;;;11.25;;
82022;SDS011;71575;49.908;18.356;2023-12-20T07:55:07;22.08;;;11.60;;
82022;SDS011;71575;49.908;18.356;2023-12-20T07:58:08;22.25;;;11.77;;
82022;SDS011;71575;49.908;18.356;2023-12-20T08:01:08;21.70;;;10.88;;
82022;SDS011;71575;49.908;18.356;2023-12-20T08:04:09;19.90;;;11.48;;
82022;SDS011;71575;49.908;18.356;2023-12-20T08:07:10;19.38;;;10.27;;
82022;SDS011;71575;49.908;18.356;2023-12-20T08:10:12;20.33;;;10.73;;
82022;SDS011;71575;49.908;18.356;2023-12-20T08:13:13;19.00;;;10.98;;
82022;SDS011;71575;49.908;18.356;2023-12-20T08:16:17;20.77;;;10.48;;
82022;SDS011;71575;49.908;18.356;2023-12-20T08:19:18;17.83;;;11.55;;
82022;SDS011;71575;49.908;18.356;2023-12-20T08:22:19;18.45;;;10.13;;
82022;SDS011;71575;49.908;18.356;2023-12-20T08:25:19;18.35;;;9.93;;
82022;SDS011;71575;49.908;18.356;2023-12-20T08:28:20;21.77;;;11.88;;
82022;SDS011;71575;49.908;18.356;2023-12-20T08:31:24;18.10;;;10.20;;
82022;SDS011;71575;49.908;18.356;2023-12-20T08:34:24;19.08;;;10.18;;
82022;SDS011;71575;49.908;18.356;2023-12-20T08:37:25;18.40;;;9.70;;
82022;SDS011;71575;49.908;18.356;2023-12-20T08:40:26;19.55;;;11.63;;
82022;SDS011;71575;49.908;18.356;2023-12-20T08:43:26;20.58;;;10.40;;
82022;SDS011;71575;49.908;18.356;2023-12-20T08:46:27;19.48;;;9.30;;
82022;SDS011;71575;49.908;18.356;2023-12-20T08:49:28;17.45;;;10.05;;
82022;SDS011;71575;49.908;18.356;2023-12-20T08:52:28;15.82;;;8.90;;
82022;SDS011;71575;49.908;18.356;2023-12-20T08:55:29;18.25;;;10.65;;
82022;SDS011;71575;49.908;18.356;2023-12-20T08:58:30;19.70;;;10.55;;
82022;SDS011;71575;49.908;18.356;2023-12-20T09:01:30;17.63;;;9.70;;
82022;SDS011;71575;49.908;18.356;2023-12-20T09:04:31;19.00;;;10.13;;
82022;SDS011;71575;49.908;18.356;2023-12-20T09:07:32;18.73;;;9.32;;
82022;SDS011;71575;49.908;18.356;2023-12-20T09:10:33;18.65;;;11.25;;
82022;SDS011;71575;49.908;18.356;2023-12-20T09:13:33;19.40;;;10.23;;
82022;SDS011;71575;49.908;18.356;2023-12-20T09:16:34;18.25;;;9.77;;
82022;SDS011;71575;49.908;18.356;2023-12-20T09:19:35;18.77;;;10.13;;
82022;SDS011;71575;49.908;18.356;2023-12-20T09:22:36;18.58;;;8.88;;
82022;SDS011;71575;49.908;18.356;2023-12-20T09:25:37;16.95;;;9.30;;
82022;SDS011;71575;49.908;18.356;2023-12-20T09:28:37;18.52;;;9.73;;
82022;SDS011;71575;49.908;18.356;2023-12-20T09:31:38;15.77;;;8.68;;
82022;SDS011;71575;49.908;18.356;2023-12-20T09:34:39;16.58;;;9.43;;
82022;SDS011;71575;49.908;18.356;2023-12-20T09:37:40;15.73;;;8.48;;
82022;SDS011;71575;49.908;18.356;2023-12-20T09:40:41;16.90;;;8.40;;
82022;SDS011;71575;49.908;18.356;2023-12-20T09:43:41;15.40;;;7.70;;
82022;SDS011;71575;49.908;18.356;2023-12-20T09:46:43;13.95;;;7.28;;
82022;SDS011;71575;49.908;18.356;2023-12-20T09:49:44;14.45;;;8.60;;
82022;SDS011;71575;49.908;18.356;2023-12-20T09:52:46;16.60;;;7.90;;
82022;SDS011;71575;49.908;18.356;2023-12-20T09:55:50;15.63;;;8.65;;
82022;SDS011;71575;49.908;18.356;2023-12-20T09:58:51;15.07;;;8.27;;
82022;SDS011;71575;49.908;18.356;2023-12-20T10:01:52;14.77;;;7.22;;
82022;SDS011;71575;49.908;18.356;2023-12-20T10:04:55;14.13;;;7.57;;
82022;SDS011;71575;49.908;18.356;2023-12-20T10:07:56;13.95;;;8.05;;
82022;SDS011;71575;49.908;18.356;2023-12-20T10:10:57;13.27;;;6.70;;
82022;SDS011;71575;49.908;18.356;2023-12-20T10:14:00;15.05;;;7.68;;
82022;SDS011;71575;49.908;18.356;2023-12-20T10:17:02;15.10;;;7.30;;
82022;SDS011;71575;49.908;18.356;2023-12-20T10:20:03;15.60;;;8.43;;
82022;SDS011;71575;49.908;18.356;2023-12-20T10:23:05;14.75;;;7.93;;
82022;SDS011;71575;49.908;18.356;2023-12-20T10:26:08;15.35;;;7.90;;
82022;SDS011;71575;49.908;18.356;2023-12-20T10:29:08;14.38;;;7.70;;
82022;SDS011;71575;49.908;18.356;2023-12-20T10:32:31;14.20;;;7.53;;
82022;SDS011;71575;49.908;18.356;2023-12-20T10:35:31;15.02;;;8.75;;
82022;SDS011;71575;49.908;18.356;2023-12-20T10:38:32;14.35;;;7.90;;
82022;SDS011;71575;49.908;18.356;2023-12-20T10:41:33;13.30;;;7.32;;
82022;SDS011;71575;49.908;18.356;2023-12-20T10:44:34;13.63;;;7.43;;
82022;SDS011;71575;49.908;18.356;2023-12-20T10:47:36;15.88;;;6.90;;
82022;SDS011;71575;49.908;18.356;2023-12-20T10:50:37;15.52;;;7.60;;
82022;SDS011;71575;49.908;18.356;2023-12-20T10:53:39;13.07;;;7.03;;
82022;SDS011;71575;49.908;18.356;2023-12-20T10:56:41;11.88;;;6.32;;
82022;SDS011;71575;49.908;18.356;2023-12-20T10:59:45;12.65;;;6.78;;
82022;SDS011;71575;49.908;18.356;2023-12-20T11:02:49;11.15;;;5.70;;
82022;SDS011;71575;49.908;18.356;2023-12-20T11:05:53;14.15;;;5.97;;
82022;SDS011;71575;49.908;18.356;2023-12-20T11:15:23;13.60;;;6.45;;
82022;SDS011;71575;49.908;18.356;2023-12-20T11:18:30;11.80;;;5.88;;
82022;SDS011;71575;49.908;18.356;2023-12-20T11:21:31;13.60;;;6.25;;
82022;SDS011;71575;49.908;18.356;2023-12-20T11:24:32;13.55;;;7.07;;
82022;SDS011;71575;49.908;18.356;2023-12-20T11:27:33;11.25;;;6.03;;
82022;SDS011;71575;49.908;18.356;2023-12-20T11:33:54;12.43;;;6.82;;
82022;SDS011;71575;49.908;18.356;2023-12-20T11:37:13;15.52;;;7.32;;
82022;SDS011;71575;49.908;18.356;2023-12-20T11:40:17;15.80;;;7.55;;
82022;SDS011;71575;49.908;18.356;2023-12-20T11:43:31;16.40;;;7.45;;
82022;SDS011;71575;49.908;18.356;2023-12-20T11:46:31;15.13;;;7.18;;
82022;SDS011;71575;49.908;18.356;2023-12-20T11:49:32;13.88;;;6.80;;
82022;SDS011;71575;49.908;18.356;2023-12-20T11:52:33;13.65;;;7.82;;
82022;SDS011;71575;49.908;18.356;2023-12-20T11:55:34;14.30;;;7.72;;
82022;SDS011;71575;49.908;18.356;2023-12-20T11:58:34;12.57;;;6.40;;
82022;SDS011;71575;49.908;18.356;2023-12-20T12:01:35;12.77;;;6.28;;
82022;SDS011;71575;49.908;18.356;2023-12-20T12:04:35;12.80;;;6.35;;
82022;SDS011;71575;49.908;18.356;2023-12-20T12:07:36;10.90;;;5.45;;
82022;SDS011;71575;49.908;18.356;2023-12-20T12:10:37;10.25;;;5.07;;
82022;SDS011;71575;49.908;18.356;2023-12-20T12:13:38;10.32;;;5.45;;
82022;SDS011;71575;49.908;18.356;2023-12-20T12:16:39;8.93;;;4.78;;
82022;SDS011;71575;49.908;18.356;2023-12-20T12:19:42;11.98;;;5.22;;
82022;SDS011;71575;49.908;18.356;2023-12-20T12:22:46;10.57;;;5.30;;
82022;SDS011;71575;49.908;18.356;2023-12-20T12:25:47;10.82;;;5.20;;
82022;SDS011;71575;49.908;18.356;2023-12-20T12:28:47;9.68;;;4.28;;
82022;SDS011;71575;49.908;18.356;2023-12-20T12:31:48;10.48;;;5.68;;
82022;SDS011;71575;49.908;18.356;2023-12-20T12:34:48;11.93;;;6.38;;
82022;SDS011;71575;49.908;18.356;2023-12-20T12:37:50;11.63;;;5.13;;
82022;SDS011;71575;49.908;18.356;2023-12-20T12:40:51;11.63;;;6.13;;
82022;SDS011;71575;49.908;18.356;2023-12-20T12:43:52;10.88;;;5.40;;
82022;SDS011;71575;49.908;18.356;2023-12-20T12:46:53;12.23;;;5.72;;
82022;SDS011;71575;49.908;18.356;2023-12-20T12:49:54;10.82;;;5.05;;
82022;SDS011;71575;49.908;18.356;2023-12-20T12:52:54;13.82;;;5.43;;
82022;SDS011;71575;49.908;18.356;2023-12-20T12:55:55;11.95;;;5.97;;
82022;SDS011;71575;49.908;18.356;2023-12-20T12:58:57;11.63;;;5.25;;
82022;SDS011;71575;49.908;18.356;2023-12-20T13:01:58;11.18;;;5.18;;
82022;SDS011;71575;49.908;18.356;2023-12-20T13:04:58;13.18;;;6.28;;
82022;SDS011;71575;49.908;18.356;2023-12-20T13:08:01;10.23;;;5.43;;
82022;SDS011;71575;49.908;18.356;2023-12-20T13:11:01;13.82;;;5.72;;
82022;SDS011;71575;49.908;18.356;2023-12-20T13:14:02;10.80;;;6.32;;
82022;SDS011;71575;49.908;18.356;2023-12-20T13:17:03;12.25;;;6.80;;
82022;SDS011;71575;49.908;18.356;2023-12-20T13:20:04;12.05;;;5.90;;
82022;SDS011;71575;49.908;18.356;2023-12-20T13:23:05;10.07;;;4.90;;
82022;SDS011;71575;49.908;18.356;2023-12-20T13:26:06;10.93;;;5.68;;
82022;SDS011;71575;49.908;18.356;2023-12-20T13:29:07;12.77;;;6.13;;
82022;SDS011;71575;49.908;18.356;2023-12-20T13:32:09;11.55;;;5.07;;
82022;SDS011;71575;49.908;18.356;2023-12-20T13:35:09;10.25;;;4.82;;
82022;SDS011;71575;49.908;18.356;2023-12-20T13:38:10;11.07;;;6.10;;
82022;SDS011;71575;49.908;18.356;2023-12-20T13:41:13;12.02;;;5.60;;
82022;SDS011;71575;49.908;18.356;2023-12-20T13:44:14;10.93;;;5.78;;
82022;SDS011;71575;49.908;18.356;2023-12-20T13:47:14;12.80;;;5.95;;
82022;SDS011;71575;49.908;18.356;2023-12-20T13:50:15;11.73;;;5.55;;
82022;SDS011;71575;49.908;18.356;2023-12-20T13:53:15;10.65;;;5.70;;
82022;SDS011;71575;49.908;18.356;2023-12-20T13:56:17;11.05;;;4.75;;
82022;SDS011;71575;49.908;18.356;2023-12-20T13:59:17;12.63;;;6.63;;
82022;SDS011;71575;49.908;18.356;2023-12-20T14:02:18;12.50;;;6.63;;
82022;SDS011;71575;49.908;18.356;2023-12-20T14:05:19;13.70;;;6.35;;
82022;SDS011;71575;49.908;18.356;2023-12-20T14:08:21;12.32;;;6.20;;
82022;SDS011;71575;49.908;18.356;2023-12-20T14:11:21;13.05;;;6.53;;
82022;SDS011;71575;49.908;18.356;2023-12-20T14:14:22;12.65;;;5.72;;
82022;SDS011;71575;49.908;18.356;2023-12-20T14:17:23;11.85;;;5.50;;
82022;SDS011;71575;49.908;18.356;2023-12-20T14:20:24;11.32;;;5.10;;
82022;SDS011;71575;49.908;18.356;2023-12-20T14:23:24;10.15;;;4.38;;
82022;SDS011;71575;49.908;18.356;2023-12-20T14:26:25;8.63;;;3.83;;
82022;SDS011;71575;49.908;18.356;2023-12-20T14:29:26;8.70;;;3.10;;
82022;SDS011;71575;49.908;18.356;2023-12-20T14:32:26;7.07;;;2.50;;
82022;SDS011;71575;49.908;18.356;2023-12-20T14:35:27;7.75;;;2.85;;
82022;SDS011;71575;49.908;18.356;2023-12-20T14:38:28;6.55;;;2.55;;
82022;SDS011;71575;49.908;18.356;2023-12-20T14:41:29;6.80;;;2.40;;
82022;SDS011;71575;49.908;18.356;2023-12-20T14:44:29;6.82;;;3.05;;
82022;SDS011;71575;49.908;18.356;2023-12-20T14:47:30;7.55;;;3.03;;
82022;SDS011;71575;49.908;18.356;2023-12-20T14:50:31;10.00;;;4.30;;
82022;SDS011;71575;49.908;18.356;2023-12-20T14:53:31;11.27;;;5.43;;
82022;SDS011;71575;49.908;18.356;2023-12-20T14:56:32;11.80;;;5.57;;
82022;SDS011;71575;49.908;18.356;2023-12-20T14:59:33;11.55;;;5.85;;
82022;SDS011;71575;49.908;18.356;2023-12-20T15:02:34;12.15;;;5.95;;
82022;SDS011;71575;49.908;18.356;2023-12-20T15:05:35;11.32;;;5.90;;
82022;SDS011;71575;49.908;18.356;2023-12-20T15:08:36;13.07;;;5.72;;
82022;SDS011;71575;49.908;18.356;2023-12-20T15:11:36;10.75;;;5.65;;
82022;SDS011;71575;49.908;18.356;2023-12-20T15:14:37;10.68;;;5.55;;
82022;SDS011;71575;49.908;18.356;2023-12-20T15:17:41;11.13;;;5.47;;
82022;SDS011;71575;49.908;18.356;2023-12-20T15:20:42;11.40;;;5.65;;
82022;SDS011;71575;49.908;18.356;2023-12-20T15:23:43;12.60;;;5.47;;
82022;SDS011;71575;49.908;18.356;2023-12-20T15:26:44;11.15;;;4.85;;
82022;SDS011;71575;49.908;18.356;2023-12-20T15:29:45;12.77;;;5.47;;
82022;SDS011;71575;49.908;18.356;2023-12-20T15:32:46;11.57;;;4.65;;
82022;SDS011;71575;49.908;18.356;2023-12-20T15:35:47;9.48;;;4.10;;
82022;SDS011;71575;49.908;18.356;2023-12-20T15:38:47;8.82;;;3.78;;
82022;SDS011;71575;49.908;18.356;2023-12-20T15:41:48;9.35;;;4.25;;
82022;SDS011;71575;49.908;18.356;2023-12-20T15:44:49;9.68;;;4.25;;
82022;SDS011;71575;49.908;18.356;2023-12-20T15:47:50;11.00;;;5.57;;
82022;SDS011;71575;49.908;18.356;2023-12-20T15:50:51;10.65;;;4.43;;
82022;SDS011;71575;49.908;18.356;2023-12-20T15:53:51;10.18;;;4.28;;
82022;SDS011;71575;49.908;18.356;2023-12-20T15:56:52;7.75;;;3.22;;
82022;SDS011;71575;49.908;18.356;2023-12-20T15:59:53;8.75;;;3.65;;
82022;SDS011;71575;49.908;18.356;2023-12-20T16:02:57;7.72;;;3.75;;
82022;SDS011;71575;49.908;18.356;2023-12-20T16:05:57;9.82;;;4.18;;
82022;SDS011;71575;49.908;18.356;2023-12-20T16:08:58;8.18;;;3.83;;
82022;SDS011;71575;49.908;18.356;2023-12-20T16:12:00;8.63;;;3.97;;
82022;SDS011;71575;49.908;18.356;2023-12-20T16:15:01;8.90;;;4.63;;
82022;SDS011;71575;49.908;18.356;2023-12-20T16:18:02;7.97;;;3.50;;
82022;SDS011;71575;49.908;18.356;2023-12-20T16:21:03;11.07;;;4.20;;
82022;SDS011;71575;49.908;18.356;2023-12-20T16:24:04;10.27;;;4.30;;
82022;SDS011;71575;49.908;18.356;2023-12-20T16:27:05;9.18;;;3.95;;
82022;SDS011;71575;49.908;18.356;2023-12-20T16:30:07;10.70;;;5.35;;
82022;SDS011;71575;49.908;18.356;2023-12-20T16:33:08;11.23;;;4.32;;
82022;SDS011;71575;49.908;18.356;2023-12-20T16:36:08;13.88;;;6.32;;
82022;SDS011;71575;49.908;18.356;2023-12-20T16:39:09;10.73;;;4.65;;
82022;SDS011;71575;49.908;18.356;2023-12-20T16:42:09;10.88;;;4.05;;
82022;SDS011;71575;49.908;18.356;2023-12-20T16:45:10;9.57;;;4.38;;
82022;SDS011;71575;49.908;18.356;2023-12-20T16:48:11;9.82;;;4.25;;
82022;SDS011;71575;49.908;18.356;2023-12-20T16:51:12;10.65;;;5.28;;
82022;SDS011;71575;49.908;18.356;2023-12-20T16:54:12;9.13;;;4.13;;
82022;SDS011;71575;49.908;18.356;2023-12-20T16:57:13;9.35;;;3.88;;
82022;SDS011;71575;49.908;18.356;2023-12-20T17:00:14;9.55;;;3.47;;
82022;SDS011;71575;49.908;18.356;2023-12-20T17:03:15;8.38;;;3.70;;
82022;SDS011;71575;49.908;18.356;2023-12-20T17:06:16;9.13;;;3.53;;
82022;SDS011;71575;49.908;18.356;2023-12-20T17:09:16;11.70;;;3.70;;
82022;SDS011;71575;49.908;18.356;2023-12-20T17:12:17;9.20;;;3.65;;
82022;SDS011;71575;49.908;18.356;2023-12-20T17:15:18;7.55;;;3.28;;
82022;SDS011;71575;49.908;18.356;2023-12-20T17:18:19;8.23;;;3.40;;
82022;SDS011;71575;49.908;18.356;2023-12-20T17:21:20;7.72;;;3.03;;
82022;SDS011;71575;49.908;18.356;2023-12-20T17:24:20;8.10;;;3.53;;
82022;SDS011;71575;49.908;18.356;2023-12-20T17:27:21;7.78;;;2.92;;
82022;SDS011;71575;49.908;18.356;2023-12-20T17:30:22;7.63;;;2.40;;
82022;SDS011;71575;49.908;18.356;2023-12-20T17:33:22;7.80;;;2.40;;
82022;SDS011;71575;49.908;18.356;2023-12-20T17:36:23;8.55;;;3.55;;
82022;SDS011;71575;49.908;18.356;2023-12-20T17:39:24;9.25;;;2.75;;
82022;SDS011;71575;49.908;18.356;2023-12-20T17:42:24;9.25;;;3.08;;
82022;SDS011;71575;49.908;18.356;2023-12-20T17:45:27;14.32;;;3.63;;
82022;SDS011;71575;49.908;18.356;2023-12-20T17:48:27;11.52;;;4.93;;